sensor_id;sensor_type;location;lat;lon;timestamp;P1;durP1;ratioP1;P2;durP2;ratioP2
55186;SDS011;55457;52.002;5.464;2022-07-09T00:01:38;5.18;;;3.83;;
55186;SDS011;55457;52.002;5.464;2022-07-09T00:04:04;4.47;;;3.53;;
55186;SDS011;55457;52.002;5.464;2022-07-09T00:06:29;3.30;;;2.97;;
55186;SDS011;55457;52.002;5.464;2022-07-09T00:08:56;6.78;;;3.35;;
55186;SDS011;55457;52.002;5.464;2022-07-09T00:11:22;3.90;;;3.35;;
55186;SDS011;55457;52.002;5.464;2022-07-09T00:13:47;5.25;;;3.78;;
55186;SDS011;55457;52.002;5.464;2022-07-09T00:16:13;4.00;;;3.33;;
55186;SDS011;55457;52.002;5.464;2022-07-09T00:18:38;4.50;;;3.20;;
55186;SDS011;55457;52.002;5.464;2022-07-09T00:21:03;3.72;;;2.80;;
55186;SDS011;55457;52.002;5.464;2022-07-09T00:23:29;4.50;;;2.95;;
55186;SDS011;55457;52.002;5.464;2022-07-09T00:25:54;3.90;;;3.38;;
55186;SDS011;55457;52.002;5.464;2022-07-09T00:28:19;4.30;;;3.70;;
55186;SDS011;55457;52.002;5.464;2022-07-09T00:30:45;4.63;;;3.63;;
55186;SDS011;55457;52.002;5.464;2022-07-09T00:33:10;3.55;;;3.25;;
55186;SDS011;55457;52.002;5.464;2022-07-09T00:35:35;5.03;;;3.28;;
55186;SDS011;55457;52.002;5.464;2022-07-09T00:38:01;6.47;;;3.75;;
55186;SDS011;55457;52.002;5.464;2022-07-09T00:40:26;4.20;;;3.03;;
55186;SDS011;55457;52.002;5.464;2022-07-09T00:42:51;4.93;;;3.03;;
55186;SDS011;55457;52.002;5.464;2022-07-09T00:45:16;8.07;;;4.10;;
55186;SDS011;55457;52.002;5.464;2022-07-09T00:47:45;4.45;;;3.10;;
55186;SDS011;55457;52.002;5.464;2022-07-09T00:50:10;3.75;;;2.72;;
55186;SDS011;55457;52.002;5.464;2022-07-09T00:52:36;5.30;;;3.38;;
55186;SDS011;55457;52.002;5.464;2022-07-09T00:55:03;3.78;;;2.92;;
55186;SDS011;55457;52.002;5.464;2022-07-09T00:57:29;4.07;;;2.88;;
55186;SDS011;55457;52.002;5.464;2022-07-09T00:59:56;4.63;;;3.45;;
55186;SDS011;55457;52.002;5.464;2022-07-09T01:02:22;4.60;;;3.85;;
55186;SDS011;55457;52.002;5.464;2022-07-09T01:04:48;3.15;;;2.85;;
55186;SDS011;55457;52.002;5.464;2022-07-09T01:07:13;3.13;;;2.70;;
55186;SDS011;55457;52.002;5.464;2022-07-09T01:09:38;4.03;;;3.13;;
55186;SDS011;55457;52.002;5.464;2022-07-09T01:12:04;4.53;;;3.80;;
55186;SDS011;55457;52.002;5.464;2022-07-09T01:14:31;6.18;;;3.50;;
55186;SDS011;55457;52.002;5.464;2022-07-09T01:16:57;3.83;;;2.85;;
55186;SDS011;55457;52.002;5.464;2022-07-09T01:19:24;3.83;;;3.13;;
55186;SDS011;55457;52.002;5.464;2022-07-09T01:21:50;7.45;;;3.47;;
55186;SDS011;55457;52.002;5.464;2022-07-09T01:24:15;2.92;;;2.72;;
55186;SDS011;55457;52.002;5.464;2022-07-09T01:26:40;4.28;;;3.25;;
55186;SDS011;55457;52.002;5.464;2022-07-09T01:29:05;6.55;;;3.00;;
55186;SDS011;55457;52.002;5.464;2022-07-09T01:31:31;5.38;;;3.60;;
55186;SDS011;55457;52.002;5.464;2022-07-09T01:33:56;4.80;;;3.22;;
55186;SDS011;55457;52.002;5.464;2022-07-09T01:36:21;4.70;;;3.22;;
55186;SDS011;55457;52.002;5.464;2022-07-09T01:38:47;3.65;;;3.22;;
55186;SDS011;55457;52.002;5.464;2022-07-09T01:41:12;4.13;;;3.08;;
55186;SDS011;55457;52.002;5.464;2022-07-09T01:43:37;4.18;;;3.40;;
55186;SDS011;55457;52.002;5.464;2022-07-09T01:46:03;4.93;;;3.17;;
55186;SDS011;55457;52.002;5.464;2022-07-09T01:48:28;4.63;;;3.35;;
55186;SDS011;55457;52.002;5.464;2022-07-09T01:50:56;3.88;;;3.20;;
55186;SDS011;55457;52.002;5.464;2022-07-09T01:53:23;5.10;;;3.85;;
55186;SDS011;55457;52.002;5.464;2022-07-09T01:55:48;3.20;;;2.70;;
55186;SDS011;55457;52.002;5.464;2022-07-09T01:58:14;5.45;;;3.33;;
55186;SDS011;55457;52.002;5.464;2022-07-09T02:00:39;4.35;;;3.22;;
55186;SDS011;55457;52.002;5.464;2022-07-09T02:03:05;4.80;;;3.42;;
55186;SDS011;55457;52.002;5.464;2022-07-09T02:05:30;3.47;;;3.13;;
55186;SDS011;55457;52.002;5.464;2022-07-09T02:07:55;5.10;;;3.40;;
55186;SDS011;55457;52.002;5.464;2022-07-09T02:10:21;5.57;;;3.75;;
55186;SDS011;55457;52.002;5.464;2022-07-09T02:12:46;4.22;;;3.70;;
55186;SDS011;55457;52.002;5.464;2022-07-09T02:15:12;6.25;;;3.53;;
55186;SDS011;55457;52.002;5.464;2022-07-09T02:17:38;6.28;;;3.58;;
55186;SDS011;55457;52.002;5.464;2022-07-09T02:20:03;4.78;;;3.30;;
55186;SDS011;55457;52.002;5.464;2022-07-09T02:22:29;4.28;;;3.47;;
55186;SDS011;55457;52.002;5.464;2022-07-09T02:24:56;3.70;;;2.95;;
55186;SDS011;55457;52.002;5.464;2022-07-09T02:27:21;4.15;;;3.30;;
55186;SDS011;55457;52.002;5.464;2022-07-09T02:29:47;3.63;;;2.92;;
55186;SDS011;55457;52.002;5.464;2022-07-09T02:32:12;4.00;;;2.85;;
55186;SDS011;55457;52.002;5.464;2022-07-09T02:34:38;5.45;;;3.63;;
55186;SDS011;55457;52.002;5.464;2022-07-09T02:37:06;3.40;;;2.60;;
55186;SDS011;55457;52.002;5.464;2022-07-09T02:39:32;5.45;;;3.40;;
55186;SDS011;55457;52.002;5.464;2022-07-09T02:41:58;4.07;;;2.80;;
55186;SDS011;55457;52.002;5.464;2022-07-09T02:44:23;5.03;;;3.20;;
55186;SDS011;55457;52.002;5.464;2022-07-09T02:46:48;4.95;;;3.10;;
55186;SDS011;55457;52.002;5.464;2022-07-09T02:49:14;4.55;;;3.20;;
55186;SDS011;55457;52.002;5.464;2022-07-09T02:51:39;5.38;;;3.35;;
55186;SDS011;55457;52.002;5.464;2022-07-09T02:54:05;4.60;;;3.83;;
55186;SDS011;55457;52.002;5.464;2022-07-09T02:56:30;3.90;;;3.33;;
55186;SDS011;55457;52.002;5.464;2022-07-09T02:58:56;4.72;;;3.10;;
55186;SDS011;55457;52.002;5.464;2022-07-09T03:01:21;4.18;;;3.53;;
55186;SDS011;55457;52.002;5.464;2022-07-09T03:03:46;7.55;;;3.85;;
55186;SDS011;55457;52.002;5.464;2022-07-09T03:06:12;4.88;;;3.03;;
55186;SDS011;55457;52.002;5.464;2022-07-09T03:08:38;6.00;;;2.97;;
55186;SDS011;55457;52.002;5.464;2022-07-09T03:11:03;4.70;;;3.15;;
55186;SDS011;55457;52.002;5.464;2022-07-09T03:13:31;5.45;;;3.22;;
55186;SDS011;55457;52.002;5.464;2022-07-09T03:15:57;5.03;;;3.28;;
55186;SDS011;55457;52.002;5.464;2022-07-09T03:18:22;4.95;;;2.97;;
55186;SDS011;55457;52.002;5.464;2022-07-09T03:20:48;4.63;;;3.40;;
55186;SDS011;55457;52.002;5.464;2022-07-09T03:23:13;5.25;;;3.28;;
55186;SDS011;55457;52.002;5.464;2022-07-09T03:25:39;4.03;;;3.08;;
55186;SDS011;55457;52.002;5.464;2022-07-09T03:28:04;4.05;;;2.92;;
55186;SDS011;55457;52.002;5.464;2022-07-09T03:30:30;4.60;;;2.63;;
55186;SDS011;55457;52.002;5.464;2022-07-09T03:32:55;4.20;;;3.20;;
55186;SDS011;55457;52.002;5.464;2022-07-09T03:35:21;7.80;;;3.88;;
55186;SDS011;55457;52.002;5.464;2022-07-09T03:37:46;4.20;;;2.72;;
55186;SDS011;55457;52.002;5.464;2022-07-09T03:40:11;3.47;;;3.17;;
55186;SDS011;55457;52.002;5.464;2022-07-09T03:42:37;4.88;;;3.00;;
55186;SDS011;55457;52.002;5.464;2022-07-09T03:45:02;4.18;;;3.08;;
55186;SDS011;55457;52.002;5.464;2022-07-09T03:47:28;3.85;;;3.17;;
55186;SDS011;55457;52.002;5.464;2022-07-09T03:49:53;4.07;;;2.95;;
55186;SDS011;55457;52.002;5.464;2022-07-09T03:52:18;3.17;;;2.88;;
55186;SDS011;55457;52.002;5.464;2022-07-09T03:54:43;4.00;;;3.30;;
55186;SDS011;55457;52.002;5.464;2022-07-09T03:57:09;4.35;;;3.08;;
55186;SDS011;55457;52.002;5.464;2022-07-09T03:59:35;4.30;;;2.80;;
55186;SDS011;55457;52.002;5.464;2022-07-09T04:02:00;4.88;;;3.22;;
55186;SDS011;55457;52.002;5.464;2022-07-09T04:04:26;7.57;;;3.50;;
55186;SDS011;55457;52.002;5.464;2022-07-09T04:06:51;4.72;;;3.40;;
55186;SDS011;55457;52.002;5.464;2022-07-09T04:09:16;4.35;;;3.17;;
55186;SDS011;55457;52.002;5.464;2022-07-09T04:11:41;5.05;;;3.15;;
55186;SDS011;55457;52.002;5.464;2022-07-09T04:14:07;3.67;;;2.97;;
55186;SDS011;55457;52.002;5.464;2022-07-09T04:16:32;3.67;;;2.90;;
55186;SDS011;55457;52.002;5.464;2022-07-09T04:18:58;4.47;;;3.42;;
55186;SDS011;55457;52.002;5.464;2022-07-09T04:21:24;4.57;;;3.30;;
55186;SDS011;55457;52.002;5.464;2022-07-09T04:23:50;3.47;;;2.70;;
55186;SDS011;55457;52.002;5.464;2022-07-09T04:26:16;5.13;;;3.15;;
55186;SDS011;55457;52.002;5.464;2022-07-09T04:28:43;4.82;;;3.97;;
55186;SDS011;55457;52.002;5.464;2022-07-09T04:31:08;4.75;;;3.15;;
55186;SDS011;55457;52.002;5.464;2022-07-09T04:33:34;5.18;;;3.67;;
55186;SDS011;55457;52.002;5.464;2022-07-09T04:35:59;3.60;;;2.72;;
55186;SDS011;55457;52.002;5.464;2022-07-09T04:38:24;3.95;;;3.35;;
55186;SDS011;55457;52.002;5.464;2022-07-09T04:40:50;4.10;;;3.25;;
55186;SDS011;55457;52.002;5.464;2022-07-09T04:43:16;3.70;;;2.90;;
55186;SDS011;55457;52.002;5.464;2022-07-09T04:45:41;5.15;;;3.40;;
55186;SDS011;55457;52.002;5.464;2022-07-09T04:48:07;3.42;;;2.72;;
55186;SDS011;55457;52.002;5.464;2022-07-09T04:50:32;3.72;;;3.25;;
55186;SDS011;55457;52.002;5.464;2022-07-09T04:52:57;5.13;;;3.47;;
55186;SDS011;55457;52.002;5.464;2022-07-09T04:55:23;6.05;;;3.08;;
55186;SDS011;55457;52.002;5.464;2022-07-09T04:57:48;7.32;;;4.53;;
55186;SDS011;55457;52.002;5.464;2022-07-09T05:00:14;3.70;;;3.08;;
55186;SDS011;55457;52.002;5.464;2022-07-09T05:02:41;4.03;;;3.13;;
55186;SDS011;55457;52.002;5.464;2022-07-09T05:05:07;4.50;;;3.03;;
55186;SDS011;55457;52.002;5.464;2022-07-09T05:07:33;4.82;;;3.75;;
55186;SDS011;55457;52.002;5.464;2022-07-09T05:09:59;5.53;;;3.28;;
55186;SDS011;55457;52.002;5.464;2022-07-09T05:12:28;4.65;;;2.97;;
55186;SDS011;55457;52.002;5.464;2022-07-09T05:14:54;4.97;;;3.58;;
55186;SDS011;55457;52.002;5.464;2022-07-09T05:17:20;4.57;;;3.65;;
55186;SDS011;55457;52.002;5.464;2022-07-09T05:19:46;4.55;;;3.15;;
55186;SDS011;55457;52.002;5.464;2022-07-09T05:22:11;4.20;;;3.67;;
55186;SDS011;55457;52.002;5.464;2022-07-09T05:24:36;3.47;;;2.80;;
55186;SDS011;55457;52.002;5.464;2022-07-09T05:27:02;6.00;;;4.00;;
55186;SDS011;55457;52.002;5.464;2022-07-09T05:29:28;4.57;;;3.30;;
55186;SDS011;55457;52.002;5.464;2022-07-09T05:31:53;7.30;;;3.70;;
55186;SDS011;55457;52.002;5.464;2022-07-09T05:34:19;5.00;;;3.03;;
55186;SDS011;55457;52.002;5.464;2022-07-09T05:36:44;4.45;;;3.17;;
55186;SDS011;55457;52.002;5.464;2022-07-09T05:39:10;5.32;;;4.30;;
55186;SDS011;55457;52.002;5.464;2022-07-09T05:41:35;5.20;;;3.05;;
55186;SDS011;55457;52.002;5.464;2022-07-09T05:44:00;6.43;;;3.53;;
55186;SDS011;55457;52.002;5.464;2022-07-09T05:46:29;6.10;;;3.92;;
55186;SDS011;55457;52.002;5.464;2022-07-09T05:48:54;4.95;;;3.70;;
55186;SDS011;55457;52.002;5.464;2022-07-09T05:51:20;4.60;;;3.63;;
55186;SDS011;55457;52.002;5.464;2022-07-09T05:53:45;3.92;;;3.28;;
55186;SDS011;55457;52.002;5.464;2022-07-09T05:56:10;4.97;;;3.83;;
55186;SDS011;55457;52.002;5.464;2022-07-09T05:58:36;4.85;;;3.35;;
55186;SDS011;55457;52.002;5.464;2022-07-09T06:01:02;5.55;;;3.88;;
55186;SDS011;55457;52.002;5.464;2022-07-09T06:03:28;7.97;;;3.72;;
55186;SDS011;55457;52.002;5.464;2022-07-09T06:05:53;5.75;;;3.78;;
55186;SDS011;55457;52.002;5.464;2022-07-09T06:08:19;4.97;;;3.80;;
55186;SDS011;55457;52.002;5.464;2022-07-09T06:10:44;5.07;;;3.88;;
55186;SDS011;55457;52.002;5.464;2022-07-09T06:13:09;6.97;;;4.45;;
55186;SDS011;55457;52.002;5.464;2022-07-09T06:15:35;4.93;;;3.90;;
55186;SDS011;55457;52.002;5.464;2022-07-09T06:18:00;6.88;;;3.70;;
55186;SDS011;55457;52.002;5.464;2022-07-09T06:20:26;7.70;;;3.95;;
55186;SDS011;55457;52.002;5.464;2022-07-09T06:22:52;7.35;;;4.22;;
55186;SDS011;55457;52.002;5.464;2022-07-09T06:25:17;6.57;;;4.55;;
55186;SDS011;55457;52.002;5.464;2022-07-09T06:27:42;5.40;;;3.75;;
55186;SDS011;55457;52.002;5.464;2022-07-09T06:30:07;5.82;;;4.68;;
55186;SDS011;55457;52.002;5.464;2022-07-09T06:32:34;7.65;;;4.45;;
55186;SDS011;55457;52.002;5.464;2022-07-09T06:34:59;5.85;;;4.68;;
55186;SDS011;55457;52.002;5.464;2022-07-09T06:37:24;8.55;;;4.72;;
55186;SDS011;55457;52.002;5.464;2022-07-09T06:39:50;6.00;;;4.15;;
55186;SDS011;55457;52.002;5.464;2022-07-09T06:42:17;6.45;;;4.30;;
55186;SDS011;55457;52.002;5.464;2022-07-09T06:44:43;9.38;;;4.90;;
55186;SDS011;55457;52.002;5.464;2022-07-09T06:47:08;8.77;;;4.38;;
55186;SDS011;55457;52.002;5.464;2022-07-09T06:49:35;6.20;;;4.63;;
55186;SDS011;55457;52.002;5.464;2022-07-09T06:52:00;7.53;;;4.60;;
55186;SDS011;55457;52.002;5.464;2022-07-09T06:54:26;10.82;;;4.88;;
55186;SDS011;55457;52.002;5.464;2022-07-09T06:56:51;5.68;;;4.50;;
55186;SDS011;55457;52.002;5.464;2022-07-09T06:59:17;7.95;;;4.13;;
55186;SDS011;55457;52.002;5.464;2022-07-09T07:01:47;6.65;;;4.05;;
55186;SDS011;55457;52.002;5.464;2022-07-09T07:04:12;8.40;;;5.07;;
55186;SDS011;55457;52.002;5.464;2022-07-09T07:06:39;6.38;;;3.25;;
55186;SDS011;55457;52.002;5.464;2022-07-09T07:09:05;6.97;;;4.28;;
55186;SDS011;55457;52.002;5.464;2022-07-09T07:11:30;8.00;;;4.18;;
55186;SDS011;55457;52.002;5.464;2022-07-09T07:13:56;11.25;;;6.00;;
55186;SDS011;55457;52.002;5.464;2022-07-09T07:16:21;12.48;;;5.32;;
55186;SDS011;55457;52.002;5.464;2022-07-09T07:18:46;8.57;;;5.65;;
55186;SDS011;55457;52.002;5.464;2022-07-09T07:21:12;9.10;;;4.82;;
55186;SDS011;55457;52.002;5.464;2022-07-09T07:23:37;9.52;;;5.20;;
55186;SDS011;55457;52.002;5.464;2022-07-09T07:26:02;6.85;;;5.30;;
55186;SDS011;55457;52.002;5.464;2022-07-09T07:28:28;7.57;;;4.35;;
55186;SDS011;55457;52.002;5.464;2022-07-09T07:30:54;8.73;;;4.55;;
55186;SDS011;55457;52.002;5.464;2022-07-09T07:33:19;9.13;;;4.82;;
55186;SDS011;55457;52.002;5.464;2022-07-09T07:35:45;11.38;;;5.47;;
55186;SDS011;55457;52.002;5.464;2022-07-09T07:38:10;13.05;;;4.50;;
55186;SDS011;55457;52.002;5.464;2022-07-09T07:40:36;6.85;;;3.75;;
55186;SDS011;55457;52.002;5.464;2022-07-09T07:43:02;8.45;;;4.50;;
55186;SDS011;55457;52.002;5.464;2022-07-09T07:45:27;6.90;;;3.88;;
55186;SDS011;55457;52.002;5.464;2022-07-09T07:47:53;7.95;;;4.22;;
55186;SDS011;55457;52.002;5.464;2022-07-09T07:50:19;6.68;;;3.55;;
55186;SDS011;55457;52.002;5.464;2022-07-09T07:52:45;5.82;;;4.30;;
55186;SDS011;55457;52.002;5.464;2022-07-09T07:55:11;4.97;;;3.70;;
55186;SDS011;55457;52.002;5.464;2022-07-09T07:57:36;7.93;;;4.75;;
55186;SDS011;55457;52.002;5.464;2022-07-09T08:00:02;8.00;;;3.88;;
55186;SDS011;55457;52.002;5.464;2022-07-09T08:02:29;9.73;;;5.07;;
55186;SDS011;55457;52.002;5.464;2022-07-09T08:04:55;9.18;;;4.00;;
55186;SDS011;55457;52.002;5.464;2022-07-09T08:07:20;7.63;;;3.90;;
55186;SDS011;55457;52.002;5.464;2022-07-09T08:09:46;7.78;;;3.95;;
55186;SDS011;55457;52.002;5.464;2022-07-09T08:12:11;11.05;;;3.85;;
55186;SDS011;55457;52.002;5.464;2022-07-09T08:14:36;7.65;;;4.68;;
55186;SDS011;55457;52.002;5.464;2022-07-09T08:17:02;6.13;;;3.50;;
55186;SDS011;55457;52.002;5.464;2022-07-09T08:19:27;9.40;;;3.90;;
55186;SDS011;55457;52.002;5.464;2022-07-09T08:21:52;8.02;;;4.43;;
55186;SDS011;55457;52.002;5.464;2022-07-09T08:24:17;7.68;;;3.97;;
55186;SDS011;55457;52.002;5.464;2022-07-09T08:26:43;4.65;;;3.65;;
55186;SDS011;55457;52.002;5.464;2022-07-09T08:29:08;7.95;;;4.03;;
55186;SDS011;55457;52.002;5.464;2022-07-09T08:31:33;6.60;;;4.40;;
55186;SDS011;55457;52.002;5.464;2022-07-09T08:33:59;6.15;;;4.10;;
55186;SDS011;55457;52.002;5.464;2022-07-09T08:36:24;7.00;;;4.18;;
55186;SDS011;55457;52.002;5.464;2022-07-09T08:38:50;6.75;;;4.30;;
55186;SDS011;55457;52.002;5.464;2022-07-09T08:41:15;4.93;;;3.83;;
55186;SDS011;55457;52.002;5.464;2022-07-09T08:43:44;6.78;;;3.63;;
55186;SDS011;55457;52.002;5.464;2022-07-09T08:46:14;6.47;;;4.28;;
55186;SDS011;55457;52.002;5.464;2022-07-09T08:48:40;6.57;;;4.20;;
55186;SDS011;55457;52.002;5.464;2022-07-09T08:51:08;5.22;;;4.30;;
55186;SDS011;55457;52.002;5.464;2022-07-09T08:53:34;6.70;;;4.35;;
55186;SDS011;55457;52.002;5.464;2022-07-09T08:56:05;7.00;;;3.85;;
55186;SDS011;55457;52.002;5.464;2022-07-09T08:58:31;13.52;;;4.60;;
55186;SDS011;55457;52.002;5.464;2022-07-09T09:00:57;7.97;;;4.20;;
55186;SDS011;55457;52.002;5.464;2022-07-09T09:03:23;7.10;;;4.10;;
55186;SDS011;55457;52.002;5.464;2022-07-09T09:08:38;6.20;;;4.50;;
55186;SDS011;55457;52.002;5.464;2022-07-09T09:11:08;5.65;;;4.28;;
55186;SDS011;55457;52.002;5.464;2022-07-09T09:13:56;6.43;;;4.05;;
55186;SDS011;55457;52.002;5.464;2022-07-09T09:16:21;7.35;;;4.57;;
55186;SDS011;55457;52.002;5.464;2022-07-09T09:18:51;6.28;;;4.53;;
55186;SDS011;55457;52.002;5.464;2022-07-09T09:21:21;4.07;;;3.67;;
55186;SDS011;55457;52.002;5.464;2022-07-09T09:23:49;5.20;;;3.97;;
55186;SDS011;55457;52.002;5.464;2022-07-09T09:26:27;5.78;;;4.35;;
55186;SDS011;55457;52.002;5.464;2022-07-09T09:28:53;3.78;;;3.35;;
55186;SDS011;55457;52.002;5.464;2022-07-09T09:33:50;6.18;;;3.92;;
55186;SDS011;55457;52.002;5.464;2022-07-09T09:41:29;4.90;;;4.00;;
55186;SDS011;55457;52.002;5.464;2022-07-09T09:43:55;7.65;;;4.00;;
55186;SDS011;55457;52.002;5.464;2022-07-09T09:46:21;5.90;;;4.70;;
55186;SDS011;55457;52.002;5.464;2022-07-09T09:48:48;6.53;;;4.68;;
55186;SDS011;55457;52.002;5.464;2022-07-09T09:51:15;5.78;;;4.45;;
55186;SDS011;55457;52.002;5.464;2022-07-09T09:53:44;5.90;;;3.92;;
55186;SDS011;55457;52.002;5.464;2022-07-09T09:56:10;4.60;;;3.78;;
55186;SDS011;55457;52.002;5.464;2022-07-09T09:58:36;8.45;;;4.63;;
55186;SDS011;55457;52.002;5.464;2022-07-09T10:01:02;4.63;;;3.80;;
55186;SDS011;55457;52.002;5.464;2022-07-09T10:03:27;4.45;;;3.65;;
55186;SDS011;55457;52.002;5.464;2022-07-09T10:05:54;4.20;;;3.65;;
55186;SDS011;55457;52.002;5.464;2022-07-09T10:08:19;5.43;;;3.88;;
55186;SDS011;55457;52.002;5.464;2022-07-09T10:10:51;4.43;;;3.33;;
55186;SDS011;55457;52.002;5.464;2022-07-09T10:13:22;5.75;;;3.88;;
55186;SDS011;55457;52.002;5.464;2022-07-09T10:15:48;4.55;;;3.17;;
55186;SDS011;55457;52.002;5.464;2022-07-09T10:18:17;3.35;;;3.05;;
55186;SDS011;55457;52.002;5.464;2022-07-09T10:20:42;4.82;;;2.90;;
55186;SDS011;55457;52.002;5.464;2022-07-09T10:23:08;5.50;;;3.30;;
55186;SDS011;55457;52.002;5.464;2022-07-09T10:25:44;5.35;;;3.22;;
55186;SDS011;55457;52.002;5.464;2022-07-09T10:28:15;4.90;;;3.43;;
55186;SDS011;55457;52.002;5.464;2022-07-09T10:30:41;6.32;;;3.55;;
55186;SDS011;55457;52.002;5.464;2022-07-09T10:35:43;4.05;;;2.72;;
55186;SDS011;55457;52.002;5.464;2022-07-09T10:38:10;4.25;;;2.58;;
55186;SDS011;55457;52.002;5.464;2022-07-09T10:40:41;5.50;;;3.40;;
55186;SDS011;55457;52.002;5.464;2022-07-09T10:43:08;8.25;;;2.20;;
55186;SDS011;55457;52.002;5.464;2022-07-09T10:48:02;5.70;;;3.17;;
55186;SDS011;55457;52.002;5.464;2022-07-09T10:50:30;5.68;;;3.13;;
55186;SDS011;55457;52.002;5.464;2022-07-09T10:52:56;5.00;;;2.72;;
55186;SDS011;55457;52.002;5.464;2022-07-09T10:55:24;6.85;;;3.47;;
55186;SDS011;55457;52.002;5.464;2022-07-09T10:57:51;6.32;;;3.00;;
55186;SDS011;55457;52.002;5.464;2022-07-09T11:00:18;6.05;;;2.95;;
55186;SDS011;55457;52.002;5.464;2022-07-09T11:02:51;5.40;;;2.85;;
55186;SDS011;55457;52.002;5.464;2022-07-09T11:05:18;2.72;;;2.22;;
55186;SDS011;55457;52.002;5.464;2022-07-09T11:07:43;4.43;;;2.72;;
55186;SDS011;55457;52.002;5.464;2022-07-09T11:10:19;4.38;;;3.28;;
55186;SDS011;55457;52.002;5.464;2022-07-09T11:12:48;5.97;;;3.08;;
55186;SDS011;55457;52.002;5.464;2022-07-09T11:15:18;3.20;;;2.45;;
55186;SDS011;55457;52.002;5.464;2022-07-09T11:17:44;2.67;;;2.47;;
55186;SDS011;55457;52.002;5.464;2022-07-09T11:20:19;3.63;;;2.80;;
55186;SDS011;55457;52.002;5.464;2022-07-09T11:22:48;4.03;;;2.47;;
55186;SDS011;55457;52.002;5.464;2022-07-09T11:25:16;3.35;;;2.63;;
55186;SDS011;55457;52.002;5.464;2022-07-09T11:27:42;4.13;;;2.65;;
55186;SDS011;55457;52.002;5.464;2022-07-09T11:30:16;4.10;;;2.20;;
55186;SDS011;55457;52.002;5.464;2022-07-09T11:32:42;4.18;;;2.33;;
55186;SDS011;55457;52.002;5.464;2022-07-09T11:35:08;5.22;;;2.00;;
55186;SDS011;55457;52.002;5.464;2022-07-09T11:37:34;2.63;;;2.35;;
55186;SDS011;55457;52.002;5.464;2022-07-09T11:39:59;3.35;;;2.33;;
55186;SDS011;55457;52.002;5.464;2022-07-09T11:42:24;3.40;;;2.38;;
55186;SDS011;55457;52.002;5.464;2022-07-09T11:44:53;4.95;;;2.67;;
55186;SDS011;55457;52.002;5.464;2022-07-09T11:47:20;3.03;;;2.25;;
55186;SDS011;55457;52.002;5.464;2022-07-09T11:50:04;4.20;;;2.85;;
55186;SDS011;55457;52.002;5.464;2022-07-09T11:52:31;4.47;;;2.97;;
55186;SDS011;55457;52.002;5.464;2022-07-09T11:54:58;2.80;;;2.20;;
55186;SDS011;55457;52.002;5.464;2022-07-09T11:57:25;2.65;;;2.13;;
55186;SDS011;55457;52.002;5.464;2022-07-09T11:59:50;2.47;;;2.28;;
55186;SDS011;55457;52.002;5.464;2022-07-09T12:02:49;2.90;;;2.30;;
55186;SDS011;55457;52.002;5.464;2022-07-09T12:05:08;4.95;;;2.85;;
55186;SDS011;55457;52.002;5.464;2022-07-09T12:07:34;4.47;;;2.10;;
55186;SDS011;55457;52.002;5.464;2022-07-09T12:10:00;2.85;;;2.08;;
55186;SDS011;55457;52.002;5.464;2022-07-09T12:12:29;3.85;;;2.70;;
55186;SDS011;55457;52.002;5.464;2022-07-09T12:14:55;4.00;;;2.13;;
55186;SDS011;55457;52.002;5.464;2022-07-09T12:17:25;3.38;;;2.00;;
55186;SDS011;55457;52.002;5.464;2022-07-09T12:19:51;3.42;;;2.08;;
55186;SDS011;55457;52.002;5.464;2022-07-09T12:22:17;4.13;;;1.92;;
55186;SDS011;55457;52.002;5.464;2022-07-09T12:24:43;4.72;;;2.00;;
55186;SDS011;55457;52.002;5.464;2022-07-09T12:27:09;3.20;;;1.95;;
55186;SDS011;55457;52.002;5.464;2022-07-09T12:29:35;2.80;;;2.25;;
55186;SDS011;55457;52.002;5.464;2022-07-09T12:32:00;5.55;;;2.10;;
55186;SDS011;55457;52.002;5.464;2022-07-09T12:34:25;3.22;;;2.13;;
55186;SDS011;55457;52.002;5.464;2022-07-09T12:36:50;2.90;;;2.10;;
55186;SDS011;55457;52.002;5.464;2022-07-09T12:39:16;2.80;;;2.00;;
55186;SDS011;55457;52.002;5.464;2022-07-09T12:41:41;3.80;;;1.90;;
55186;SDS011;55457;52.002;5.464;2022-07-09T12:44:06;2.25;;;1.50;;
55186;SDS011;55457;52.002;5.464;2022-07-09T12:46:32;3.20;;;1.77;;
55186;SDS011;55457;52.002;5.464;2022-07-09T12:48:57;5.57;;;1.90;;
55186;SDS011;55457;52.002;5.464;2022-07-09T12:51:23;2.35;;;1.70;;
55186;SDS011;55457;52.002;5.464;2022-07-09T12:53:48;3.13;;;1.88;;
55186;SDS011;55457;52.002;5.464;2022-07-09T12:56:13;4.68;;;2.15;;
55186;SDS011;55457;52.002;5.464;2022-07-09T12:58:39;2.55;;;1.65;;
55186;SDS011;55457;52.002;5.464;2022-07-09T13:01:05;2.88;;;2.00;;
55186;SDS011;55457;52.002;5.464;2022-07-09T13:03:30;3.03;;;1.30;;
55186;SDS011;55457;52.002;5.464;2022-07-09T13:05:55;2.67;;;1.65;;
55186;SDS011;55457;52.002;5.464;2022-07-09T13:08:21;3.63;;;1.70;;
55186;SDS011;55457;52.002;5.464;2022-07-09T13:10:46;3.17;;;2.28;;
55186;SDS011;55457;52.002;5.464;2022-07-09T13:13:11;2.55;;;1.65;;
55186;SDS011;55457;52.002;5.464;2022-07-09T13:15:37;2.15;;;1.60;;
55186;SDS011;55457;52.002;5.464;2022-07-09T13:18:03;1.55;;;1.33;;
55186;SDS011;55457;52.002;5.464;2022-07-09T13:20:28;2.35;;;1.48;;
55186;SDS011;55457;52.002;5.464;2022-07-09T13:22:53;2.50;;;1.70;;
55186;SDS011;55457;52.002;5.464;2022-07-09T13:25:19;4.22;;;1.88;;
55186;SDS011;55457;52.002;5.464;2022-07-09T13:27:44;2.60;;;1.50;;
55186;SDS011;55457;52.002;5.464;2022-07-09T13:30:10;1.90;;;1.65;;
55186;SDS011;55457;52.002;5.464;2022-07-09T13:32:36;2.85;;;1.15;;
55186;SDS011;55457;52.002;5.464;2022-07-09T13:35:01;3.92;;;1.70;;
55186;SDS011;55457;52.002;5.464;2022-07-09T13:37:27;2.22;;;1.23;;
55186;SDS011;55457;52.002;5.464;2022-07-09T13:39:52;2.72;;;1.35;;
55186;SDS011;55457;52.002;5.464;2022-07-09T13:42:18;1.92;;;1.58;;
55186;SDS011;55457;52.002;5.464;2022-07-09T13:44:43;4.20;;;1.58;;
55186;SDS011;55457;52.002;5.464;2022-07-09T13:47:09;2.67;;;1.13;;
55186;SDS011;55457;52.002;5.464;2022-07-09T13:49:34;3.25;;;1.25;;
55186;SDS011;55457;52.002;5.464;2022-07-09T13:52:00;1.60;;;1.08;;
55186;SDS011;55457;52.002;5.464;2022-07-09T13:54:25;2.15;;;1.65;;
55186;SDS011;55457;52.002;5.464;2022-07-09T13:56:50;3.47;;;1.52;;
55186;SDS011;55457;52.002;5.464;2022-07-09T13:59:16;2.83;;;1.52;;
55186;SDS011;55457;52.002;5.464;2022-07-09T14:01:41;2.75;;;1.50;;
55186;SDS011;55457;52.002;5.464;2022-07-09T14:04:06;2.53;;;1.60;;
55186;SDS011;55457;52.002;5.464;2022-07-09T14:06:32;3.00;;;1.50;;
55186;SDS011;55457;52.002;5.464;2022-07-09T14:08:57;3.17;;;1.42;;
55186;SDS011;55457;52.002;5.464;2022-07-09T14:11:23;1.90;;;1.30;;
55186;SDS011;55457;52.002;5.464;2022-07-09T14:13:48;2.42;;;1.02;;
55186;SDS011;55457;52.002;5.464;2022-07-09T14:16:14;3.00;;;1.48;;
55186;SDS011;55457;52.002;5.464;2022-07-09T14:18:40;1.92;;;1.42;;
55186;SDS011;55457;52.002;5.464;2022-07-09T14:21:05;2.78;;;1.60;;
55186;SDS011;55457;52.002;5.464;2022-07-09T14:23:31;2.53;;;1.42;;
55186;SDS011;55457;52.002;5.464;2022-07-09T14:25:56;5.13;;;1.83;;
55186;SDS011;55457;52.002;5.464;2022-07-09T14:28:21;2.33;;;1.35;;
55186;SDS011;55457;52.002;5.464;2022-07-09T14:30:47;2.38;;;1.40;;
55186;SDS011;55457;52.002;5.464;2022-07-09T14:33:12;4.35;;;1.35;;
55186;SDS011;55457;52.002;5.464;2022-07-09T14:35:38;2.00;;;1.45;;
55186;SDS011;55457;52.002;5.464;2022-07-09T14:38:04;2.78;;;1.60;;
55186;SDS011;55457;52.002;5.464;2022-07-09T14:40:30;1.55;;;1.10;;
55186;SDS011;55457;52.002;5.464;2022-07-09T14:42:55;1.63;;;1.40;;
55186;SDS011;55457;52.002;5.464;2022-07-09T14:45:20;2.08;;;1.40;;
55186;SDS011;55457;52.002;5.464;2022-07-09T14:47:48;3.95;;;1.70;;
55186;SDS011;55457;52.002;5.464;2022-07-09T14:50:13;2.47;;;1.30;;
55186;SDS011;55457;52.002;5.464;2022-07-09T14:52:39;2.65;;;1.30;;
55186;SDS011;55457;52.002;5.464;2022-07-09T14:55:08;4.03;;;1.70;;
55186;SDS011;55457;52.002;5.464;2022-07-09T14:57:34;1.80;;;1.30;;